sensor_id;sensor_type;location;lat;lon;timestamp;P1;durP1;ratioP1;P2;durP2;ratioP2
74082;SDS011;62439;50.490;6.620;2022-07-23T00:00:56;32.40;;;15.63;;
74082;SDS011;62439;50.490;6.620;2022-07-23T00:03:23;36.80;;;16.67;;
74082;SDS011;62439;50.490;6.620;2022-07-23T00:05:51;39.03;;;16.85;;
74082;SDS011;62439;50.490;6.620;2022-07-23T00:08:19;37.13;;;18.92;;
74082;SDS011;62439;50.490;6.620;2022-07-23T00:10:46;43.75;;;20.45;;
74082;SDS011;62439;50.490;6.620;2022-07-23T00:13:15;43.40;;;20.33;;
74082;SDS011;62439;50.490;6.620;2022-07-23T00:15:43;42.30;;;19.27;;
74082;SDS011;62439;50.490;6.620;2022-07-23T00:18:10;41.58;;;20.75;;
74082;SDS011;62439;50.490;6.620;2022-07-23T00:20:38;43.70;;;19.67;;
74082;SDS011;62439;50.490;6.620;2022-07-23T00:23:05;42.63;;;21.55;;
74082;SDS011;62439;50.490;6.620;2022-07-23T00:25:34;43.97;;;21.00;;
74082;SDS011;62439;50.490;6.620;2022-07-23T00:28:01;48.37;;;20.67;;
74082;SDS011;62439;50.490;6.620;2022-07-23T00:30:31;40.28;;;19.77;;
74082;SDS011;62439;50.490;6.620;2022-07-23T00:33:00;40.72;;;19.50;;
74082;SDS011;62439;50.490;6.620;2022-07-23T00:35:30;44.75;;;20.25;;
74082;SDS011;62439;50.490;6.620;2022-07-23T00:37:59;39.55;;;19.85;;
74082;SDS011;62439;50.490;6.620;2022-07-23T00:40:28;43.37;;;20.37;;
74082;SDS011;62439;50.490;6.620;2022-07-23T00:42:56;41.78;;;19.33;;
74082;SDS011;62439;50.490;6.620;2022-07-23T00:45:25;40.15;;;19.73;;
74082;SDS011;62439;50.490;6.620;2022-07-23T00:47:54;40.42;;;19.45;;
74082;SDS011;62439;50.490;6.620;2022-07-23T00:50:22;46.10;;;21.17;;
74082;SDS011;62439;50.490;6.620;2022-07-23T00:52:49;44.13;;;21.33;;
74082;SDS011;62439;50.490;6.620;2022-07-23T00:55:17;40.83;;;19.65;;
74082;SDS011;62439;50.490;6.620;2022-07-23T00:57:45;39.70;;;19.95;;
74082;SDS011;62439;50.490;6.620;2022-07-23T01:00:13;45.88;;;21.08;;
74082;SDS011;62439;50.490;6.620;2022-07-23T01:02:42;39.05;;;18.92;;
74082;SDS011;62439;50.490;6.620;2022-07-23T01:05:13;45.43;;;20.80;;
74082;SDS011;62439;50.490;6.620;2022-07-23T01:07:42;48.50;;;21.83;;
74082;SDS011;62439;50.490;6.620;2022-07-23T01:10:09;46.58;;;22.52;;
74082;SDS011;62439;50.490;6.620;2022-07-23T01:12:51;51.85;;;22.55;;
74082;SDS011;62439;50.490;6.620;2022-07-23T01:15:18;46.67;;;21.42;;
74082;SDS011;62439;50.490;6.620;2022-07-23T01:17:46;48.10;;;22.77;;
74082;SDS011;62439;50.490;6.620;2022-07-23T01:20:15;49.13;;;22.83;;
74082;SDS011;62439;50.490;6.620;2022-07-23T01:22:44;50.08;;;23.35;;
74082;SDS011;62439;50.490;6.620;2022-07-23T01:25:12;53.35;;;24.25;;
74082;SDS011;62439;50.490;6.620;2022-07-23T01:27:40;48.30;;;22.92;;
74082;SDS011;62439;50.490;6.620;2022-07-23T01:30:09;49.57;;;23.80;;
74082;SDS011;62439;50.490;6.620;2022-07-23T01:32:37;46.75;;;22.58;;
74082;SDS011;62439;50.490;6.620;2022-07-23T01:35:06;52.60;;;24.25;;
74082;SDS011;62439;50.490;6.620;2022-07-23T01:37:35;47.15;;;23.15;;
74082;SDS011;62439;50.490;6.620;2022-07-23T01:40:05;46.92;;;21.88;;
74082;SDS011;62439;50.490;6.620;2022-07-23T01:42:33;49.30;;;21.90;;
74082;SDS011;62439;50.490;6.620;2022-07-23T01:45:03;47.83;;;23.65;;
74082;SDS011;62439;50.490;6.620;2022-07-23T01:47:31;44.20;;;21.58;;
74082;SDS011;62439;50.490;6.620;2022-07-23T01:49:59;49.08;;;23.38;;
74082;SDS011;62439;50.490;6.620;2022-07-23T01:52:26;49.42;;;23.88;;
74082;SDS011;62439;50.490;6.620;2022-07-23T01:54:54;47.60;;;23.10;;
74082;SDS011;62439;50.490;6.620;2022-07-23T01:57:22;56.10;;;25.08;;
74082;SDS011;62439;50.490;6.620;2022-07-23T01:59:50;50.22;;;22.50;;
74082;SDS011;62439;50.490;6.620;2022-07-23T02:02:17;50.47;;;24.25;;
74082;SDS011;62439;50.490;6.620;2022-07-23T02:04:45;48.08;;;23.90;;
74082;SDS011;62439;50.490;6.620;2022-07-23T02:07:13;49.10;;;23.77;;
74082;SDS011;62439;50.490;6.620;2022-07-23T02:09:40;51.30;;;23.75;;
74082;SDS011;62439;50.490;6.620;2022-07-23T02:12:08;48.28;;;22.58;;
74082;SDS011;62439;50.490;6.620;2022-07-23T02:14:36;54.38;;;24.05;;
74082;SDS011;62439;50.490;6.620;2022-07-23T02:17:04;52.25;;;23.23;;
74082;SDS011;62439;50.490;6.620;2022-07-23T02:19:32;48.83;;;23.20;;
74082;SDS011;62439;50.490;6.620;2022-07-23T02:21:59;52.40;;;24.55;;
74082;SDS011;62439;50.490;6.620;2022-07-23T02:24:27;45.83;;;22.13;;
74082;SDS011;62439;50.490;6.620;2022-07-23T02:26:54;55.78;;;26.00;;
74082;SDS011;62439;50.490;6.620;2022-07-23T02:29:22;62.00;;;25.17;;
74082;SDS011;62439;50.490;6.620;2022-07-23T02:31:50;54.03;;;24.37;;
74082;SDS011;62439;50.490;6.620;2022-07-23T02:34:18;61.08;;;25.38;;
74082;SDS011;62439;50.490;6.620;2022-07-23T02:36:45;62.30;;;25.70;;
74082;SDS011;62439;50.490;6.620;2022-07-23T02:39:13;62.20;;;26.90;;
74082;SDS011;62439;50.490;6.620;2022-07-23T02:41:40;68.88;;;26.40;;
74082;SDS011;62439;50.490;6.620;2022-07-23T02:44:08;79.83;;;29.47;;
74082;SDS011;62439;50.490;6.620;2022-07-23T02:46:35;81.60;;;30.25;;
74082;SDS011;62439;50.490;6.620;2022-07-23T02:49:06;85.28;;;31.25;;
74082;SDS011;62439;50.490;6.620;2022-07-23T02:51:34;97.85;;;31.88;;
74082;SDS011;62439;50.490;6.620;2022-07-23T02:54:01;110.85;;;35.83;;
74082;SDS011;62439;50.490;6.620;2022-07-23T02:56:29;92.87;;;31.03;;
74082;SDS011;62439;50.490;6.620;2022-07-23T02:58:56;86.15;;;30.70;;
74082;SDS011;62439;50.490;6.620;2022-07-23T03:01:24;96.30;;;32.67;;
74082;SDS011;62439;50.490;6.620;2022-07-23T03:03:52;96.50;;;31.67;;
74082;SDS011;62439;50.490;6.620;2022-07-23T03:06:21;89.00;;;31.52;;
74082;SDS011;62439;50.490;6.620;2022-07-23T03:08:48;93.17;;;34.33;;
74082;SDS011;62439;50.490;6.620;2022-07-23T03:11:16;102.45;;;34.67;;
74082;SDS011;62439;50.490;6.620;2022-07-23T03:13:44;94.03;;;32.53;;
74082;SDS011;62439;50.490;6.620;2022-07-23T03:16:11;89.38;;;34.03;;
74082;SDS011;62439;50.490;6.620;2022-07-23T03:18:39;105.00;;;31.73;;
74082;SDS011;62439;50.490;6.620;2022-07-23T03:21:08;82.03;;;32.20;;
74082;SDS011;62439;50.490;6.620;2022-07-23T03:23:37;95.43;;;32.30;;
74082;SDS011;62439;50.490;6.620;2022-07-23T03:26:04;74.55;;;29.92;;
74082;SDS011;62439;50.490;6.620;2022-07-23T03:28:32;68.35;;;28.75;;
74082;SDS011;62439;50.490;6.620;2022-07-23T03:31:00;67.63;;;27.33;;
74082;SDS011;62439;50.490;6.620;2022-07-23T03:33:27;64.53;;;27.37;;
74082;SDS011;62439;50.490;6.620;2022-07-23T03:35:55;69.00;;;25.92;;
74082;SDS011;62439;50.490;6.620;2022-07-23T03:38:22;61.13;;;25.55;;
74082;SDS011;62439;50.490;6.620;2022-07-23T03:40:51;61.25;;;26.23;;
74082;SDS011;62439;50.490;6.620;2022-07-23T03:43:18;65.00;;;26.85;;
74082;SDS011;62439;50.490;6.620;2022-07-23T03:45:46;54.07;;;24.93;;
74082;SDS011;62439;50.490;6.620;2022-07-23T03:48:13;58.50;;;25.77;;
74082;SDS011;62439;50.490;6.620;2022-07-23T03:50:41;60.55;;;25.33;;
74082;SDS011;62439;50.490;6.620;2022-07-23T03:53:08;64.90;;;26.58;;
74082;SDS011;62439;50.490;6.620;2022-07-23T03:55:36;54.35;;;25.17;;
74082;SDS011;62439;50.490;6.620;2022-07-23T03:58:04;58.30;;;24.33;;
74082;SDS011;62439;50.490;6.620;2022-07-23T04:00:32;59.03;;;26.17;;
74082;SDS011;62439;50.490;6.620;2022-07-23T04:02:59;52.78;;;24.10;;
74082;SDS011;62439;50.490;6.620;2022-07-23T04:05:27;60.22;;;26.02;;
74082;SDS011;62439;50.490;6.620;2022-07-23T04:07:54;61.38;;;26.50;;
74082;SDS011;62439;50.490;6.620;2022-07-23T04:10:22;61.57;;;26.67;;
74082;SDS011;62439;50.490;6.620;2022-07-23T04:12:49;61.25;;;25.52;;
74082;SDS011;62439;50.490;6.620;2022-07-23T04:15:18;60.72;;;26.35;;
74082;SDS011;62439;50.490;6.620;2022-07-23T04:17:46;56.72;;;25.75;;
74082;SDS011;62439;50.490;6.620;2022-07-23T04:20:13;60.22;;;24.98;;
74082;SDS011;62439;50.490;6.620;2022-07-23T04:22:41;59.60;;;26.27;;
74082;SDS011;62439;50.490;6.620;2022-07-23T04:25:08;58.13;;;26.42;;
74082;SDS011;62439;50.490;6.620;2022-07-23T04:27:36;55.70;;;24.35;;
74082;SDS011;62439;50.490;6.620;2022-07-23T04:30:04;58.53;;;24.92;;
74082;SDS011;62439;50.490;6.620;2022-07-23T04:32:34;60.08;;;24.50;;
74082;SDS011;62439;50.490;6.620;2022-07-23T04:35:01;57.83;;;24.53;;
74082;SDS011;62439;50.490;6.620;2022-07-23T04:37:29;55.08;;;25.20;;
74082;SDS011;62439;50.490;6.620;2022-07-23T04:39:56;50.25;;;22.48;;
74082;SDS011;62439;50.490;6.620;2022-07-23T04:42:24;48.65;;;23.40;;
74082;SDS011;62439;50.490;6.620;2022-07-23T04:44:51;48.67;;;22.23;;
74082;SDS011;62439;50.490;6.620;2022-07-23T04:47:18;51.60;;;23.33;;
74082;SDS011;62439;50.490;6.620;2022-07-23T04:49:49;52.05;;;24.27;;
74082;SDS011;62439;50.490;6.620;2022-07-23T04:52:17;52.20;;;23.38;;
74082;SDS011;62439;50.490;6.620;2022-07-23T04:54:45;50.85;;;22.73;;
74082;SDS011;62439;50.490;6.620;2022-07-23T04:57:12;46.60;;;22.02;;
74082;SDS011;62439;50.490;6.620;2022-07-23T04:59:40;50.93;;;23.03;;
74082;SDS011;62439;50.490;6.620;2022-07-23T05:02:07;46.40;;;22.65;;
74082;SDS011;62439;50.490;6.620;2022-07-23T05:04:35;44.42;;;21.38;;
74082;SDS011;62439;50.490;6.620;2022-07-23T05:07:04;44.35;;;22.42;;
74082;SDS011;62439;50.490;6.620;2022-07-23T05:09:31;43.50;;;21.35;;
74082;SDS011;62439;50.490;6.620;2022-07-23T05:12:00;46.03;;;21.27;;
74082;SDS011;62439;50.490;6.620;2022-07-23T05:14:27;45.80;;;21.83;;
74082;SDS011;62439;50.490;6.620;2022-07-23T05:16:55;41.85;;;21.50;;
74082;SDS011;62439;50.490;6.620;2022-07-23T05:19:22;39.15;;;20.33;;
74082;SDS011;62439;50.490;6.620;2022-07-23T05:21:50;43.25;;;20.63;;
74082;SDS011;62439;50.490;6.620;2022-07-23T05:24:19;40.73;;;19.03;;
74082;SDS011;62439;50.490;6.620;2022-07-23T05:26:47;40.25;;;20.13;;
74082;SDS011;62439;50.490;6.620;2022-07-23T05:29:14;38.78;;;19.67;;
74082;SDS011;62439;50.490;6.620;2022-07-23T05:31:41;42.58;;;20.60;;
74082;SDS011;62439;50.490;6.620;2022-07-23T05:34:09;39.65;;;20.55;;
74082;SDS011;62439;50.490;6.620;2022-07-23T05:36:43;42.03;;;21.03;;
74082;SDS011;62439;50.490;6.620;2022-07-23T05:39:10;38.20;;;19.92;;
74082;SDS011;62439;50.490;6.620;2022-07-23T05:41:39;42.75;;;18.38;;
74082;SDS011;62439;50.490;6.620;2022-07-23T05:44:08;42.38;;;20.63;;
74082;SDS011;62439;50.490;6.620;2022-07-23T05:46:36;38.63;;;20.30;;
74082;SDS011;62439;50.490;6.620;2022-07-23T05:49:03;41.60;;;18.97;;
74082;SDS011;62439;50.490;6.620;2022-07-23T05:51:32;39.03;;;18.95;;
74082;SDS011;62439;50.490;6.620;2022-07-23T05:53:59;40.33;;;19.98;;
74082;SDS011;62439;50.490;6.620;2022-07-23T05:56:27;41.47;;;21.25;;
74082;SDS011;62439;50.490;6.620;2022-07-23T05:58:56;43.10;;;20.27;;
74082;SDS011;62439;50.490;6.620;2022-07-23T06:01:24;39.53;;;20.20;;
74082;SDS011;62439;50.490;6.620;2022-07-23T06:03:51;40.85;;;20.23;;
74082;SDS011;62439;50.490;6.620;2022-07-23T06:06:19;39.75;;;19.42;;
74082;SDS011;62439;50.490;6.620;2022-07-23T06:08:46;36.88;;;18.98;;
74082;SDS011;62439;50.490;6.620;2022-07-23T06:11:14;38.60;;;20.20;;
74082;SDS011;62439;50.490;6.620;2022-07-23T06:13:41;39.53;;;18.37;;
74082;SDS011;62439;50.490;6.620;2022-07-23T06:16:10;35.72;;;18.23;;
74082;SDS011;62439;50.490;6.620;2022-07-23T06:18:38;36.60;;;18.60;;
74082;SDS011;62439;50.490;6.620;2022-07-23T06:21:05;40.20;;;20.83;;
74082;SDS011;62439;50.490;6.620;2022-07-23T06:23:52;36.40;;;19.25;;
74082;SDS011;62439;50.490;6.620;2022-07-23T06:26:20;38.70;;;19.53;;
74082;SDS011;62439;50.490;6.620;2022-07-23T06:28:47;36.78;;;20.35;;
74082;SDS011;62439;50.490;6.620;2022-07-23T06:31:16;42.00;;;20.45;;
74082;SDS011;62439;50.490;6.620;2022-07-23T06:33:44;43.35;;;23.75;;
74082;SDS011;62439;50.490;6.620;2022-07-23T06:36:11;39.72;;;23.60;;
74082;SDS011;62439;50.490;6.620;2022-07-23T06:38:39;45.33;;;26.60;;
74082;SDS011;62439;50.490;6.620;2022-07-23T06:41:07;34.97;;;21.52;;
74082;SDS011;62439;50.490;6.620;2022-07-23T06:43:34;34.60;;;19.05;;
74082;SDS011;62439;50.490;6.620;2022-07-23T06:46:02;32.00;;;17.95;;
74082;SDS011;62439;50.490;6.620;2022-07-23T06:48:30;32.85;;;17.20;;
74082;SDS011;62439;50.490;6.620;2022-07-23T06:51:00;27.50;;;15.40;;
74082;SDS011;62439;50.490;6.620;2022-07-23T06:53:28;21.73;;;13.98;;
74082;SDS011;62439;50.490;6.620;2022-07-23T06:55:55;19.63;;;10.85;;
74082;SDS011;62439;50.490;6.620;2022-07-23T06:58:23;19.95;;;10.13;;
74082;SDS011;62439;50.490;6.620;2022-07-23T07:00:50;17.45;;;10.05;;
74082;SDS011;62439;50.490;6.620;2022-07-23T07:03:18;20.23;;;10.63;;
74082;SDS011;62439;50.490;6.620;2022-07-23T07:05:47;22.48;;;15.48;;
74082;SDS011;62439;50.490;6.620;2022-07-23T07:08:15;18.00;;;9.07;;
74082;SDS011;62439;50.490;6.620;2022-07-23T07:10:43;20.23;;;11.45;;
74082;SDS011;62439;50.490;6.620;2022-07-23T07:13:10;19.08;;;10.13;;
74082;SDS011;62439;50.490;6.620;2022-07-23T07:15:38;29.00;;;16.80;;
74082;SDS011;62439;50.490;6.620;2022-07-23T07:18:05;20.27;;;10.23;;
74082;SDS011;62439;50.490;6.620;2022-07-23T07:20:33;20.00;;;9.75;;
74082;SDS011;62439;50.490;6.620;2022-07-23T07:23:02;19.33;;;9.75;;
74082;SDS011;62439;50.490;6.620;2022-07-23T07:25:30;17.27;;;8.57;;
74082;SDS011;62439;50.490;6.620;2022-07-23T07:27:57;15.13;;;8.57;;
74082;SDS011;62439;50.490;6.620;2022-07-23T07:30:25;17.65;;;9.93;;
74082;SDS011;62439;50.490;6.620;2022-07-23T07:32:59;17.38;;;7.85;;
74082;SDS011;62439;50.490;6.620;2022-07-23T07:35:26;16.17;;;8.82;;
74082;SDS011;62439;50.490;6.620;2022-07-23T07:37:54;18.45;;;8.80;;
74082;SDS011;62439;50.490;6.620;2022-07-23T07:40:23;17.37;;;9.27;;
74082;SDS011;62439;50.490;6.620;2022-07-23T07:42:58;18.30;;;8.93;;
74082;SDS011;62439;50.490;6.620;2022-07-23T07:45:26;16.17;;;8.18;;
74082;SDS011;62439;50.490;6.620;2022-07-23T07:47:53;13.63;;;7.47;;
74082;SDS011;62439;50.490;6.620;2022-07-23T07:50:21;17.30;;;7.53;;
74082;SDS011;62439;50.490;6.620;2022-07-23T07:52:49;10.80;;;5.97;;
74082;SDS011;62439;50.490;6.620;2022-07-23T07:55:16;11.60;;;5.82;;
74082;SDS011;62439;50.490;6.620;2022-07-23T07:57:45;12.93;;;6.32;;
74082;SDS011;62439;50.490;6.620;2022-07-23T08:00:14;16.00;;;7.82;;
74082;SDS011;62439;50.490;6.620;2022-07-23T08:02:44;13.10;;;5.93;;
74082;SDS011;62439;50.490;6.620;2022-07-23T08:05:13;12.63;;;5.40;;
74082;SDS011;62439;50.490;6.620;2022-07-23T08:07:41;10.43;;;4.70;;
74082;SDS011;62439;50.490;6.620;2022-07-23T08:10:09;10.10;;;4.80;;
74082;SDS011;62439;50.490;6.620;2022-07-23T08:12:37;9.05;;;3.83;;
74082;SDS011;62439;50.490;6.620;2022-07-23T08:15:08;9.95;;;5.20;;
74082;SDS011;62439;50.490;6.620;2022-07-23T08:17:39;10.67;;;5.43;;
74082;SDS011;62439;50.490;6.620;2022-07-23T08:20:08;9.35;;;4.10;;
74082;SDS011;62439;50.490;6.620;2022-07-23T08:22:46;9.40;;;4.85;;
74082;SDS011;62439;50.490;6.620;2022-07-23T08:25:16;9.65;;;3.72;;
74082;SDS011;62439;50.490;6.620;2022-07-23T08:27:46;10.32;;;4.13;;
74082;SDS011;62439;50.490;6.620;2022-07-23T08:30:16;10.30;;;4.57;;
74082;SDS011;62439;50.490;6.620;2022-07-23T08:32:51;9.00;;;4.32;;
74082;SDS011;62439;50.490;6.620;2022-07-23T08:35:24;10.60;;;5.10;;
74082;SDS011;62439;50.490;6.620;2022-07-23T08:37:53;10.15;;;4.65;;
74082;SDS011;62439;50.490;6.620;2022-07-23T08:40:20;8.32;;;3.75;;
74082;SDS011;62439;50.490;6.620;2022-07-23T08:42:49;7.77;;;3.40;;
74082;SDS011;62439;50.490;6.620;2022-07-23T08:45:19;11.23;;;4.28;;
74082;SDS011;62439;50.490;6.620;2022-07-23T08:47:49;9.50;;;3.72;;
74082;SDS011;62439;50.490;6.620;2022-07-23T08:50:19;8.27;;;3.50;;
74082;SDS011;62439;50.490;6.620;2022-07-23T08:52:48;10.05;;;3.75;;
74082;SDS011;62439;50.490;6.620;2022-07-23T08:55:16;10.20;;;3.83;;
74082;SDS011;62439;50.490;6.620;2022-07-23T08:57:44;10.23;;;4.50;;
74082;SDS011;62439;50.490;6.620;2022-07-23T09:00:14;8.15;;;3.33;;
74082;SDS011;62439;50.490;6.620;2022-07-23T09:02:45;9.07;;;5.13;;
74082;SDS011;62439;50.490;6.620;2022-07-23T09:05:13;9.40;;;3.63;;
74082;SDS011;62439;50.490;6.620;2022-07-23T09:10:36;8.88;;;4.07;;
74082;SDS011;62439;50.490;6.620;2022-07-23T09:13:22;10.55;;;4.45;;
74082;SDS011;62439;50.490;6.620;2022-07-23T09:15:51;10.02;;;4.15;;
74082;SDS011;62439;50.490;6.620;2022-07-23T09:18:28;10.45;;;4.65;;
74082;SDS011;62439;50.490;6.620;2022-07-23T09:21:06;10.37;;;4.80;;
74082;SDS011;62439;50.490;6.620;2022-07-23T09:23:45;9.57;;;4.18;;
74082;SDS011;62439;50.490;6.620;2022-07-23T09:26:19;8.55;;;3.80;;
74082;SDS011;62439;50.490;6.620;2022-07-23T09:28:50;12.65;;;4.40;;
74082;SDS011;62439;50.490;6.620;2022-07-23T09:31:19;7.32;;;3.67;;
74082;SDS011;62439;50.490;6.620;2022-07-23T09:33:49;12.27;;;5.97;;
74082;SDS011;62439;50.490;6.620;2022-07-23T09:36:26;11.43;;;4.70;;
74082;SDS011;62439;50.490;6.620;2022-07-23T09:38:54;13.05;;;5.93;;
74082;SDS011;62439;50.490;6.620;2022-07-23T09:41:22;12.07;;;5.03;;
74082;SDS011;62439;50.490;6.620;2022-07-23T09:43:54;9.75;;;3.90;;
74082;SDS011;62439;50.490;6.620;2022-07-23T09:46:23;16.37;;;7.63;;
74082;SDS011;62439;50.490;6.620;2022-07-23T09:48:53;14.45;;;5.60;;
74082;SDS011;62439;50.490;6.620;2022-07-23T09:51:23;10.73;;;5.10;;
74082;SDS011;62439;50.490;6.620;2022-07-23T09:53:55;13.02;;;6.88;;
74082;SDS011;62439;50.490;6.620;2022-07-23T09:56:25;10.85;;;5.38;;
74082;SDS011;62439;50.490;6.620;2022-07-23T09:58:55;10.87;;;4.80;;
74082;SDS011;62439;50.490;6.620;2022-07-23T10:01:30;13.32;;;5.70;;
74082;SDS011;62439;50.490;6.620;2022-07-23T10:04:00;10.18;;;5.13;;
74082;SDS011;62439;50.490;6.620;2022-07-23T10:06:30;12.75;;;6.50;;
74082;SDS011;62439;50.490;6.620;2022-07-23T10:08:58;12.60;;;6.18;;
74082;SDS011;62439;50.490;6.620;2022-07-23T10:11:27;13.93;;;6.20;;
74082;SDS011;62439;50.490;6.620;2022-07-23T10:13:57;12.02;;;5.60;;
74082;SDS011;62439;50.490;6.620;2022-07-23T10:16:26;13.05;;;5.55;;
74082;SDS011;62439;50.490;6.620;2022-07-23T10:18:54;12.05;;;5.68;;
74082;SDS011;62439;50.490;6.620;2022-07-23T10:21:25;12.20;;;5.22;;
74082;SDS011;62439;50.490;6.620;2022-07-23T10:24:01;13.93;;;5.60;;
74082;SDS011;62439;50.490;6.620;2022-07-23T10:26:38;12.82;;;5.20;;
74082;SDS011;62439;50.490;6.620;2022-07-23T10:29:18;13.20;;;5.60;;
74082;SDS011;62439;50.490;6.620;2022-07-23T10:31:56;12.00;;;5.70;;
74082;SDS011;62439;50.490;6.620;2022-07-23T10:34:31;11.15;;;5.90;;
74082;SDS011;62439;50.490;6.620;2022-07-23T10:37:14;11.47;;;3.73;;
74082;SDS011;62439;50.490;6.620;2022-07-23T10:39:48;10.68;;;4.35;;
74082;SDS011;62439;50.490;6.620;2022-07-23T10:42:35;8.90;;;4.15;;
74082;SDS011;62439;50.490;6.620;2022-07-23T10:45:15;9.25;;;4.43;;
74082;SDS011;62439;50.490;6.620;2022-07-23T10:47:50;10.23;;;5.35;;
74082;SDS011;62439;50.490;6.620;2022-07-23T10:50:21;9.47;;;4.23;;
74082;SDS011;62439;50.490;6.620;2022-07-23T10:53:11;9.98;;;4.50;;
74082;SDS011;62439;50.490;6.620;2022-07-23T10:55:44;7.40;;;3.70;;
74082;SDS011;62439;50.490;6.620;2022-07-23T10:58:17;10.85;;;5.60;;
74082;SDS011;62439;50.490;6.620;2022-07-23T11:00:48;10.65;;;5.40;;
74082;SDS011;62439;50.490;6.620;2022-07-23T11:03:33;11.67;;;5.30;;
74082;SDS011;62439;50.490;6.620;2022-07-23T11:06:04;8.95;;;4.40;;
74082;SDS011;62439;50.490;6.620;2022-07-23T11:08:33;10.60;;;4.22;;
74082;SDS011;62439;50.490;6.620;2022-07-23T11:11:07;13.13;;;4.18;;
74082;SDS011;62439;50.490;6.620;2022-07-23T11:16:25;9.87;;;4.20;;
74082;SDS011;62439;50.490;6.620;2022-07-23T11:18:54;9.50;;;4.10;;
74082;SDS011;62439;50.490;6.620;2022-07-23T11:24:19;10.07;;;4.10;;
74082;SDS011;62439;50.490;6.620;2022-07-23T11:26:58;8.48;;;3.65;;
74082;SDS011;62439;50.490;6.620;2022-07-23T11:29:38;9.17;;;3.80;;
74082;SDS011;62439;50.490;6.620;2022-07-23T11:35:24;9.68;;;4.10;;
74082;SDS011;62439;50.490;6.620;2022-07-23T11:37:54;8.65;;;4.20;;
74082;SDS011;62439;50.490;6.620;2022-07-23T11:40:31;9.93;;;4.25;;
74082;SDS011;62439;50.490;6.620;2022-07-23T11:42:59;8.80;;;4.47;;
74082;SDS011;62439;50.490;6.620;2022-07-23T11:45:30;8.75;;;4.10;;
74082;SDS011;62439;50.490;6.620;2022-07-23T11:48:00;7.40;;;3.97;;
74082;SDS011;62439;50.490;6.620;2022-07-23T11:50:27;7.95;;;3.83;;
74082;SDS011;62439;50.490;6.620;2022-07-23T11:52:55;9.18;;;4.22;;
74082;SDS011;62439;50.490;6.620;2022-07-23T11:55:23;11.43;;;4.40;;
74082;SDS011;62439;50.490;6.620;2022-07-23T11:57:53;7.80;;;3.88;;
74082;SDS011;62439;50.490;6.620;2022-07-23T12:00:22;9.10;;;4.20;;
74082;SDS011;62439;50.490;6.620;2022-07-23T12:02:54;8.18;;;4.10;;
74082;SDS011;62439;50.490;6.620;2022-07-23T12:05:25;7.07;;;3.90;;
74082;SDS011;62439;50.490;6.620;2022-07-23T12:07:54;7.50;;;3.53;;
74082;SDS011;62439;50.490;6.620;2022-07-23T12:10:24;9.82;;;3.40;;
74082;SDS011;62439;50.490;6.620;2022-07-23T12:12:56;6.15;;;3.60;;
74082;SDS011;62439;50.490;6.620;2022-07-23T12:15:26;6.85;;;3.33;;
74082;SDS011;62439;50.490;6.620;2022-07-23T12:17:56;7.40;;;3.35;;
74082;SDS011;62439;50.490;6.620;2022-07-23T12:20:25;7.27;;;4.03;;
74082;SDS011;62439;50.490;6.620;2022-07-23T12:22:55;8.90;;;3.90;;
74082;SDS011;62439;50.490;6.620;2022-07-23T12:25:25;9.10;;;3.60;;
74082;SDS011;62439;50.490;6.620;2022-07-23T12:28:00;9.00;;;4.18;;
74082;SDS011;62439;50.490;6.620;2022-07-23T12:30:31;7.53;;;3.53;;
74082;SDS011;62439;50.490;6.620;2022-07-23T12:33:00;8.43;;;4.40;;
74082;SDS011;62439;50.490;6.620;2022-07-23T12:35:33;9.15;;;3.50;;
74082;SDS011;62439;50.490;6.620;2022-07-23T12:38:03;7.28;;;3.47;;
74082;SDS011;62439;50.490;6.620;2022-07-23T12:40:32;5.93;;;2.95;;
74082;SDS011;62439;50.490;6.620;2022-07-23T12:43:04;8.00;;;4.13;;
74082;SDS011;62439;50.490;6.620;2022-07-23T12:45:43;7.77;;;3.50;;
74082;SDS011;62439;50.490;6.620;2022-07-23T12:48:17;8.68;;;3.67;;
74082;SDS011;62439;50.490;6.620;2022-07-23T12:50:53;8.13;;;3.42;;
74082;SDS011;62439;50.490;6.620;2022-07-23T12:53:24;7.43;;;3.67;;
74082;SDS011;62439;50.490;6.620;2022-07-23T12:55:57;6.78;;;3.53;;
74082;SDS011;62439;50.490;6.620;2022-07-23T12:58:43;5.37;;;2.53;;
74082;SDS011;62439;50.490;6.620;2022-07-23T13:01:23;9.10;;;2.78;;
74082;SDS011;62439;50.490;6.620;2022-07-23T13:04:00;7.53;;;3.40;;
74082;SDS011;62439;50.490;6.620;2022-07-23T13:06:49;8.35;;;3.72;;
74082;SDS011;62439;50.490;6.620;2022-07-23T13:09:18;8.55;;;3.42;;
74082;SDS011;62439;50.490;6.620;2022-07-23T13:11:47;7.37;;;2.87;;
74082;SDS011;62439;50.490;6.620;2022-07-23T13:14:17;8.13;;;3.20;;
74082;SDS011;62439;50.490;6.620;2022-07-23T13:16:47;5.90;;;2.85;;
74082;SDS011;62439;50.490;6.620;2022-07-23T13:19:16;6.93;;;3.35;;
74082;SDS011;62439;50.490;6.620;2022-07-23T13:21:45;7.15;;;3.30;;
74082;SDS011;62439;50.490;6.620;2022-07-23T13:24:12;7.27;;;3.43;;
74082;SDS011;62439;50.490;6.620;2022-07-23T13:26:40;10.57;;;4.13;;
74082;SDS011;62439;50.490;6.620;2022-07-23T13:29:08;9.00;;;3.83;;
74082;SDS011;62439;50.490;6.620;2022-07-23T13:31:38;5.60;;;3.05;;
74082;SDS011;62439;50.490;6.620;2022-07-23T13:34:06;8.90;;;3.90;;
74082;SDS011;62439;50.490;6.620;2022-07-23T13:36:34;8.80;;;4.30;;
74082;SDS011;62439;50.490;6.620;2022-07-23T13:39:02;5.88;;;3.15;;
74082;SDS011;62439;50.490;6.620;2022-07-23T13:41:32;8.38;;;3.15;;
74082;SDS011;62439;50.490;6.620;2022-07-23T13:44:01;8.50;;;4.00;;
74082;SDS011;62439;50.490;6.620;2022-07-23T13:46:29;8.48;;;3.95;;
74082;SDS011;62439;50.490;6.620;2022-07-23T13:48:58;8.47;;;3.83;;
74082;SDS011;62439;50.490;6.620;2022-07-23T13:51:27;7.82;;;4.57;;
74082;SDS011;62439;50.490;6.620;2022-07-23T13:53:54;9.65;;;3.92;;
74082;SDS011;62439;50.490;6.620;2022-07-23T13:56:25;8.30;;;4.00;;
74082;SDS011;62439;50.490;6.620;2022-07-23T13:58:52;8.25;;;4.47;;
74082;SDS011;62439;50.490;6.620;2022-07-23T14:01:20;7.53;;;4.07;;
74082;SDS011;62439;50.490;6.620;2022-07-23T14:03:47;7.72;;;3.70;;
74082;SDS011;62439;50.490;6.620;2022-07-23T14:06:16;8.25;;;4.22;;
74082;SDS011;62439;50.490;6.620;2022-07-23T14:08:54;10.43;;;4.80;;
74082;SDS011;62439;50.490;6.620;2022-07-23T14:11:22;8.43;;;4.65;;
74082;SDS011;62439;50.490;6.620;2022-07-23T14:13:50;7.23;;;4.30;;
74082;SDS011;62439;50.490;6.620;2022-07-23T14:16:18;7.13;;;3.95;;
74082;SDS011;62439;50.490;6.620;2022-07-23T14:18:45;7.38;;;4.05;;
74082;SDS011;62439;50.490;6.620;2022-07-23T14:21:13;9.43;;;3.88;;
74082;SDS011;62439;50.490;6.620;2022-07-23T14:23:42;7.75;;;4.25;;
74082;SDS011;62439;50.490;6.620;2022-07-23T14:26:09;7.33;;;4.17;;
74082;SDS011;62439;50.490;6.620;2022-07-23T14:28:40;7.22;;;3.17;;
74082;SDS011;62439;50.490;6.620;2022-07-23T14:31:07;13.25;;;4.57;;
74082;SDS011;62439;50.490;6.620;2022-07-23T14:33:46;6.47;;;3.90;;
74082;SDS011;62439;50.490;6.620;2022-07-23T14:36:14;8.25;;;4.38;;
74082;SDS011;62439;50.490;6.620;2022-07-23T14:38:43;7.77;;;4.40;;
74082;SDS011;62439;50.490;6.620;2022-07-23T14:41:11;9.40;;;4.80;;
74082;SDS011;62439;50.490;6.620;2022-07-23T14:43:41;10.05;;;4.47;;
74082;SDS011;62439;50.490;6.620;2022-07-23T14:46:09;8.82;;;4.15;;
74082;SDS011;62439;50.490;6.620;2022-07-23T14:48:37;8.77;;;4.78;;
74082;SDS011;62439;50.490;6.620;2022-07-23T14:51:05;10.80;;;4.53;;
74082;SDS011;62439;50.490;6.620;2022-07-23T14:53:33;9.30;;;4.97;;
74082;SDS011;62439;50.490;6.620;2022-07-23T14:56:02;9.23;;;4.15;;